createdAt,value
2024-02-04T00:00:30.181Z,99050.78
2024-02-04T00:03:34.276Z,99043.22
2024-02-04T00:06:38.227Z,99053.44
2024-02-04T00:09:45.180Z,99048.19
2024-02-04T00:12:49.283Z,99043.16
2024-02-04T00:15:55.542Z,99044.84
2024-02-04T00:18:59.600Z,99035.00
2024-02-04T00:22:04.318Z,99035.22
2024-02-04T00:25:13.207Z,99040.84
2024-02-04T00:28:17.360Z,99044.19
2024-02-04T00:31:21.270Z,99065.63
2024-02-04T00:34:25.331Z,99061.56
2024-02-04T00:37:29.387Z,99056.50
2024-02-04T00:40:38.667Z,99041.97
2024-02-04T00:43:42.930Z,99060.47
2024-02-04T00:46:46.960Z,99058.06
2024-02-04T00:49:50.968Z,99052.19
2024-02-04T00:52:55.074Z,99062.81
2024-02-04T00:56:00.413Z,99073.34
2024-02-04T00:59:04.323Z,99053.09
2024-02-04T01:02:10.087Z,99065.13
2024-02-04T01:05:15.822Z,99069.19
2024-02-04T01:08:20.472Z,99069.09
2024-02-04T01:11:25.840Z,99065.94
2024-02-04T01:14:29.784Z,99071.06
2024-02-04T01:17:35.157Z,99070.97
2024-02-04T01:20:39.206Z,99071.25
2024-02-04T01:23:43.097Z,99051.44
2024-02-04T01:26:48.421Z,99080.38
2024-02-04T01:29:52.371Z,99087.75
2024-02-04T01:32:56.314Z,99092.88
2024-02-04T01:36:00.701Z,99074.50
2024-02-04T01:39:05.936Z,99073.47
2024-02-04T01:42:11.510Z,99088.25
2024-02-04T01:45:15.564Z,99075.34
2024-02-04T01:48:19.617Z,99092.28
2024-02-04T01:51:23.725Z,99085.25
2024-02-04T01:54:27.866Z,99094.25
2024-02-04T01:57:33.299Z,99098.09
2024-02-04T02:00:37.338Z,99099.09
2024-02-04T02:03:41.394Z,99098.88
2024-02-04T02:06:45.429Z,99089.47
2024-02-04T02:09:49.721Z,99098.00
2024-02-04T02:12:59.082Z,99091.91
2024-02-04T02:16:07.966Z,99100.88
2024-02-04T02:19:22.758Z,99100.78
2024-02-04T02:22:32.166Z,99091.00
2024-02-04T02:25:38.805Z,99097.44
2024-02-04T02:28:43.367Z,99111.94
2024-02-04T02:31:49.271Z,99109.56
2024-02-04T02:34:53.794Z,99104.19
2024-02-04T02:38:08.040Z,99111.88
2024-02-04T02:41:15.505Z,99136.19
2024-02-04T02:44:20.235Z,99125.81
2024-02-04T02:47:25.255Z,99125.19
2024-02-04T02:50:29.296Z,99133.78
2024-02-04T02:53:33.895Z,99147.03
2024-02-04T02:56:39.230Z,99136.56
2024-02-04T02:59:43.061Z,99139.75
2024-02-04T03:02:47.013Z,99128.00
2024-02-04T03:05:51.170Z,99141.38
2024-02-04T03:08:55.151Z,99126.66
2024-02-04T03:12:00.464Z,99126.94
2024-02-04T03:15:04.698Z,99130.72
2024-02-04T03:18:08.701Z,99119.59
2024-02-04T03:21:16.442Z,99121.69
2024-02-04T03:24:20.410Z,99113.81
2024-02-04T03:27:25.935Z,99101.81
2024-02-04T03:30:29.905Z,99102.41
2024-02-04T03:33:34.168Z,99123.34
2024-02-04T03:36:39.963Z,99123.56
2024-02-04T03:39:44.147Z,99131.41
2024-02-04T03:42:49.873Z,99135.34
2024-02-04T03:45:54.097Z,99132.19
2024-02-04T03:48:58.096Z,99144.97
2024-02-04T03:52:02.320Z,99129.84
2024-02-04T03:55:07.156Z,99138.06
2024-02-04T03:58:12.829Z,99127.22
2024-02-04T04:01:16.977Z,99131.34
2024-02-04T04:04:21.063Z,99146.44
2024-02-04T04:07:25.242Z,99139.00
2024-02-04T04:10:29.307Z,99150.22
2024-02-04T04:13:36.348Z,99142.34
2024-02-04T04:16:40.477Z,99147.66
2024-02-04T04:19:44.447Z,99149.00
2024-02-04T04:22:48.462Z,99151.22
2024-02-04T04:25:52.401Z,99152.41
2024-02-04T04:28:57.721Z,99150.16
2024-02-04T04:32:01.657Z,99150.56
2024-02-04T04:35:06.229Z,99159.25
2024-02-04T04:38:10.093Z,99155.53
2024-02-04T04:41:13.989Z,99163.13
2024-02-04T04:44:19.237Z,99163.13
2024-02-04T04:47:23.427Z,99163.16
2024-02-04T04:50:27.311Z,99163.19
2024-02-04T04:53:31.204Z,99164.09
2024-02-04T04:56:43.091Z,99164.66
2024-02-04T04:59:48.867Z,99170.06
2024-02-04T05:02:52.724Z,99159.91
2024-02-04T05:05:56.625Z,99168.22
2024-02-04T05:09:00.873Z,99168.16
2024-02-04T05:12:05.397Z,99172.84
2024-02-04T05:15:11.831Z,99156.19
2024-02-04T05:18:15.838Z,99158.19
2024-02-04T05:21:19.822Z,99157.84
2024-02-04T05:24:23.907Z,99152.94
2024-02-04T05:27:28.011Z,99158.69
2024-02-04T05:30:33.415Z,99148.44
2024-02-04T05:33:37.355Z,99147.06
2024-02-04T05:36:42.543Z,99148.56
2024-02-04T05:39:46.504Z,99156.31
2024-02-04T05:42:50.462Z,99157.09
2024-02-04T05:45:56.252Z,99152.47
2024-02-04T05:49:00.580Z,99150.47
2024-02-04T05:52:05.522Z,99159.81
2024-02-04T05:55:09.993Z,99158.63
2024-02-04T05:58:15.090Z,99143.41
2024-02-04T06:01:20.529Z,99159.00
2024-02-04T06:04:24.631Z,99162.63
2024-02-04T06:07:28.735Z,99164.28
2024-02-04T06:10:32.659Z,99172.09
2024-02-04T06:13:36.642Z,99173.50
2024-02-04T06:16:41.937Z,99159.56
2024-02-04T06:19:46.017Z,99165.44
2024-02-04T06:22:49.931Z,99183.94
2024-02-04T06:25:53.971Z,99181.72
2024-02-04T06:28:57.886Z,99195.75
2024-02-04T06:32:03.436Z,99181.63
2024-02-04T06:35:08.719Z,99187.25
2024-02-04T06:38:12.760Z,99188.28
2024-02-04T06:41:16.766Z,99194.38
2024-02-04T06:44:20.695Z,99189.94
2024-02-04T06:47:26.054Z,99180.91
2024-02-04T06:50:30.217Z,99180.75
2024-02-04T06:53:34.131Z,99178.88
2024-02-04T06:56:38.138Z,99185.91
2024-02-04T06:59:41.966Z,99180.63
2024-02-04T07:02:47.399Z,99179.34
2024-02-04T07:05:51.371Z,99184.91
2024-02-04T07:08:55.337Z,99189.88
2024-02-04T07:11:59.159Z,99195.16
2024-02-04T07:15:03.398Z,99206.50
2024-02-04T07:18:09.013Z,99198.25
2024-02-04T07:21:13.127Z,99198.31
2024-02-04T07:24:17.015Z,99188.91
2024-02-04T07:27:20.990Z,99185.34
2024-02-04T07:30:25.009Z,99181.78
2024-02-04T07:33:33.119Z,99174.09
2024-02-04T07:36:37.392Z,99185.97
2024-02-04T07:39:41.338Z,99183.47
2024-02-04T07:42:45.275Z,99171.50
2024-02-04T07:45:49.361Z,99177.31
2024-02-04T07:48:54.711Z,99178.09
2024-02-04T07:51:58.865Z,99179.34
2024-02-04T07:55:02.918Z,99171.88
2024-02-04T07:58:06.994Z,99165.41
2024-02-04T08:01:10.946Z,99174.59
2024-02-04T08:04:16.664Z,99168.13
2024-02-04T08:07:21.919Z,99160.97
2024-02-04T08:10:25.971Z,99166.03
2024-02-04T08:13:29.851Z,99156.28
2024-02-04T08:16:33.859Z,99151.53
2024-02-04T08:19:39.336Z,99152.31
2024-02-04T08:22:43.365Z,99160.78
2024-02-04T08:25:47.917Z,99155.75
2024-02-04T08:28:51.843Z,99152.81
2024-02-04T08:31:55.903Z,99160.03
2024-02-04T08:35:01.430Z,99151.88
2024-02-04T08:38:05.705Z,99148.50
2024-02-04T08:41:09.672Z,99154.78
2024-02-04T08:44:22.775Z,99155.53
2024-02-04T08:47:36.031Z,99154.19
2024-02-04T08:50:41.297Z,99160.81
2024-02-04T08:53:45.375Z,99144.25
2024-02-04T08:56:49.336Z,99155.00
2024-02-04T08:59:53.970Z,99161.00
2024-02-04T09:02:58.166Z,99144.59
2024-02-04T09:06:03.635Z,99135.78
2024-02-04T09:09:09.274Z,99155.28
2024-02-04T09:12:13.277Z,99139.53
2024-02-04T09:15:17.262Z,99134.56
2024-02-04T09:18:21.359Z,99134.19
2024-02-04T09:21:27.062Z,99142.84
2024-02-04T09:24:31.978Z,99137.72
2024-02-04T09:27:36.012Z,99146.09
2024-02-04T09:30:40.038Z,99143.94
2024-02-04T09:33:44.457Z,99144.47
2024-02-04T09:36:50.047Z,99142.97
2024-02-04T09:39:54.085Z,99146.53
2024-02-04T09:42:58.659Z,99134.09
2024-02-04T09:46:03.429Z,99126.41
2024-02-04T09:49:08.153Z,99126.44
2024-02-04T09:52:15.366Z,99132.91
2024-02-04T09:55:20.698Z,99135.94
2024-02-04T09:58:24.756Z,99134.31
2024-02-04T10:01:29.276Z,99136.44
2024-02-04T10:04:33.246Z,99128.66
2024-02-04T10:07:38.926Z,99131.38
2024-02-04T10:10:43.312Z,99134.41
2024-02-04T10:13:47.797Z,99136.50
2024-02-04T10:16:52.394Z,99135.66
2024-02-04T10:19:56.296Z,99128.59
2024-02-04T10:23:01.724Z,99137.63
2024-02-04T10:26:07.795Z,99124.75
2024-02-04T10:29:11.912Z,99127.41
2024-02-04T10:32:21.710Z,99103.47
2024-02-04T10:35:27.595Z,99108.88
2024-02-04T10:38:33.031Z,99099.03
2024-02-04T10:41:39.536Z,99097.00
2024-02-04T10:44:46.571Z,99100.16
2024-02-04T10:47:57.369Z,99091.06
2024-02-04T10:51:01.658Z,99100.06
2024-02-04T10:54:08.075Z,99100.69
2024-02-04T10:57:15.028Z,99091.13
2024-02-04T11:00:20.079Z,99089.06
2024-02-04T11:03:28.686Z,99073.59
2024-02-04T11:09:53.895Z,99067.69
2024-02-04T11:12:58.381Z,99063.59
2024-02-04T11:16:20.177Z,99050.75
2024-02-04T11:19:34.676Z,99047.31
2024-02-04T11:22:51.687Z,99051.53
2024-02-04T11:25:59.440Z,99048.88
2024-02-04T11:29:03.936Z,99047.44
2024-02-04T11:32:08.565Z,99054.03
2024-02-04T11:35:13.263Z,99037.44
2024-02-04T11:38:20.113Z,99049.63
2024-02-04T11:41:27.296Z,99050.00
2024-02-04T11:44:31.252Z,99041.06
2024-02-04T11:47:36.888Z,99039.72
2024-02-04T11:50:41.909Z,99035.88
2024-02-04T11:53:46.875Z,99021.56
2024-02-04T11:56:54.988Z,99021.97
2024-02-04T11:59:59.356Z,99026.41
2024-02-04T12:03:04.742Z,99034.69
2024-02-04T12:06:10.130Z,99030.22
2024-02-04T12:09:15.049Z,99034.22
2024-02-04T12:12:20.562Z,99031.41
2024-02-04T12:15:24.666Z,99028.41
2024-02-04T12:18:28.866Z,99028.56
2024-02-04T12:21:33.132Z,99010.78
2024-02-04T12:24:37.749Z,99010.59
2024-02-04T12:27:43.526Z,99001.44
2024-02-04T12:30:55.370Z,99001.78
2024-02-04T12:34:01.066Z,99000.19
2024-02-04T12:37:05.616Z,98991.66
2024-02-04T12:40:13.074Z,98993.22
2024-02-04T12:43:18.630Z,98992.00
2024-02-04T12:46:22.864Z,98990.44
2024-02-04T12:49:27.187Z,98985.13
2024-02-04T12:52:32.746Z,98986.31
2024-02-04T12:55:37.683Z,98981.19
2024-02-04T12:58:45.968Z,98984.50
2024-02-04T13:01:54.869Z,98979.97
2024-02-04T13:04:58.884Z,98990.53
2024-02-04T13:08:05.021Z,98977.13
2024-02-04T13:11:09.641Z,98973.75
2024-02-04T13:14:15.060Z,98965.06
2024-02-04T13:17:19.018Z,98965.41
2024-02-04T13:20:23.388Z,98975.88
2024-02-04T13:23:27.200Z,98965.31
2024-02-04T13:26:31.213Z,98971.31
2024-02-04T13:29:37.175Z,98985.41
2024-02-04T13:32:42.818Z,98983.94
2024-02-04T13:35:47.602Z,98971.94
2024-02-04T13:38:51.660Z,98978.97
2024-02-04T13:41:55.553Z,98981.38
2024-02-04T13:45:00.884Z,98985.47
2024-02-04T13:48:05.042Z,98974.41
2024-02-04T13:51:09.048Z,98976.13
2024-02-04T13:54:17.250Z,98982.84
2024-02-04T13:57:22.222Z,98982.31
2024-02-04T14:00:28.024Z,98987.56
2024-02-04T14:03:32.157Z,99005.19
2024-02-04T14:06:36.128Z,98977.78
2024-02-04T14:09:40.191Z,98987.03
2024-02-04T14:12:46.599Z,98986.25
2024-02-04T14:15:53.818Z,98978.22
2024-02-04T14:19:00.978Z,98957.63
2024-02-04T14:22:05.980Z,98955.19
2024-02-04T14:25:10.283Z,98969.59
2024-02-04T14:28:14.536Z,98959.34
2024-02-04T14:31:20.040Z,98972.00
2024-02-04T14:34:24.341Z,98958.47
2024-02-04T14:37:30.926Z,98982.28
2024-02-04T14:40:36.164Z,98972.00
2024-02-04T14:43:40.278Z,98988.38
2024-02-04T14:46:46.996Z,98977.38
2024-02-04T14:49:51.156Z,98969.66
2024-02-04T14:52:55.322Z,98975.97
2024-02-04T14:56:00.616Z,98979.72
2024-02-04T14:59:04.558Z,98989.28
2024-02-04T15:02:10.539Z,98998.59
2024-02-04T15:05:15.073Z,98984.25
2024-02-04T15:08:19.169Z,98987.59
2024-02-04T15:11:23.774Z,98998.97
2024-02-04T15:14:28.140Z,98999.31
2024-02-04T15:17:34.277Z,99000.72
2024-02-04T15:20:38.731Z,98999.47
2024-02-04T15:23:43.635Z,98994.78
2024-02-04T15:26:49.694Z,99005.34
2024-02-04T15:29:54.373Z,99010.44
2024-02-04T15:33:00.493Z,99005.63
2024-02-04T15:36:04.572Z,99019.50
2024-02-04T15:39:12.412Z,99025.03
2024-02-04T15:42:16.872Z,99026.22
2024-02-04T15:45:20.763Z,99026.34
2024-02-04T15:48:28.969Z,99025.28
2024-02-04T15:51:33.376Z,99031.41
2024-02-04T15:54:38.092Z,99033.00
2024-02-04T15:57:42.818Z,99019.59
2024-02-04T16:00:47.340Z,99020.84
2024-02-04T16:03:54.934Z,99030.78
2024-02-04T16:06:59.573Z,99036.13
2024-02-04T16:10:04.748Z,99021.81
2024-02-04T16:13:11.017Z,99020.56
2024-02-04T16:16:16.710Z,99016.44
2024-02-04T16:19:23.448Z,99007.66
2024-02-04T16:22:27.426Z,99007.75
2024-02-04T16:25:33.890Z,98995.00
2024-02-04T16:28:39.429Z,99002.28
2024-02-04T16:31:43.620Z,98999.63
2024-02-04T16:34:49.034Z,99005.34
2024-02-04T16:37:52.943Z,99002.84
2024-02-04T16:40:56.948Z,99010.78
2024-02-04T16:44:00.877Z,99006.69
2024-02-04T16:47:05.378Z,98994.16
2024-02-04T16:50:12.012Z,99000.84
2024-02-04T16:53:17.424Z,98998.06
2024-02-04T16:56:24.285Z,99011.03
2024-02-04T16:59:28.262Z,99015.75
2024-02-04T17:02:33.178Z,99024.22
2024-02-04T17:05:50.324Z,99032.84
2024-02-04T17:09:02.987Z,99017.13
2024-02-04T17:12:09.132Z,99022.34
2024-02-04T17:15:14.414Z,99020.06
2024-02-04T17:18:24.825Z,99019.19
2024-02-04T17:21:35.051Z,99025.16
2024-02-04T17:24:40.368Z,99020.34
2024-02-04T17:27:44.970Z,99021.72
2024-02-04T17:30:49.556Z,99027.53
2024-02-04T17:33:54.499Z,99025.09
2024-02-04T17:37:00.648Z,99029.47
2024-02-04T17:40:07.016Z,99027.94
2024-02-04T17:43:12.441Z,99031.03
2024-02-04T17:46:16.465Z,99028.88
2024-02-04T17:49:20.526Z,99029.75
2024-02-04T17:52:26.619Z,99033.25
2024-02-04T17:55:31.125Z,99024.88
2024-02-04T17:58:35.826Z,99015.84
2024-02-04T18:01:39.764Z,99023.31
2024-02-04T18:04:44.938Z,99021.78
2024-02-04T18:07:52.268Z,99031.69
2024-02-04T18:10:56.517Z,99035.41
2024-02-04T18:14:02.659Z,99036.84
2024-02-04T18:17:07.742Z,99034.34
2024-02-04T18:20:13.752Z,99030.38
2024-02-04T18:23:20.263Z,99036.34
2024-02-04T18:26:25.164Z,99042.59
2024-02-04T18:29:29.186Z,99035.66
2024-02-04T18:32:34.105Z,99047.56
2024-02-04T18:35:38.600Z,99050.22
2024-02-04T18:38:45.147Z,99044.94
2024-02-04T18:41:49.146Z,99054.31
2024-02-04T18:44:53.117Z,99046.78
2024-02-04T18:47:57.107Z,99051.88
2024-02-04T18:51:01.060Z,99059.81
2024-02-04T18:54:06.547Z,99049.72
2024-02-04T18:57:10.535Z,99052.03
2024-02-04T19:00:15.575Z,99053.19
2024-02-04T19:03:19.366Z,99036.41
2024-02-04T19:06:30.042Z,99033.69
2024-02-04T19:09:35.743Z,99032.81
2024-02-04T19:12:40.653Z,99029.03
2024-02-04T19:15:44.619Z,99032.00
2024-02-04T19:18:48.690Z,99029.19
2024-02-04T19:21:53.977Z,99025.94
2024-02-04T19:24:59.388Z,99028.22
2024-02-04T19:28:03.793Z,99026.31
2024-02-04T19:31:07.822Z,99027.88
2024-02-04T19:34:12.040Z,99031.63
2024-02-04T19:37:16.368Z,99028.34
2024-02-04T19:40:22.867Z,99032.31
2024-02-04T19:43:30.646Z,99026.19
2024-02-04T19:46:34.838Z,99020.41
2024-02-04T19:49:43.880Z,99016.53
2024-02-04T19:52:48.771Z,99034.31
2024-02-04T19:55:54.616Z,99025.88
2024-02-04T19:59:04.696Z,99020.03
2024-02-04T20:02:09.056Z,99019.34
2024-02-04T20:05:13.244Z,99021.88
2024-02-04T20:08:17.490Z,99028.47
2024-02-04T20:11:22.840Z,99027.97
2024-02-04T20:14:26.961Z,99017.00
2024-02-04T20:17:30.868Z,99031.16
2024-02-04T20:20:34.996Z,99022.88
2024-02-04T20:23:38.979Z,99023.09
2024-02-04T20:26:44.376Z,99023.69
2024-02-04T20:29:48.819Z,99017.38
2024-02-04T20:32:53.060Z,99003.03
2024-02-04T20:35:58.710Z,99013.09
2024-02-04T20:39:02.888Z,99007.56
2024-02-04T20:42:09.026Z,99003.81
2024-02-04T20:45:12.967Z,98998.75
2024-02-04T20:48:17.228Z,98987.31
2024-02-04T20:51:22.906Z,98992.34
2024-02-04T20:54:28.093Z,98984.97
2024-02-04T20:57:33.868Z,98989.94
2024-02-04T21:00:38.656Z,98997.63
2024-02-04T21:03:42.848Z,98995.00
2024-02-04T21:06:47.170Z,98990.91
2024-02-04T21:09:52.151Z,98992.81
2024-02-04T21:12:59.758Z,98996.06
2024-02-04T21:16:04.518Z,98996.16
2024-02-04T21:19:08.617Z,98994.66
2024-02-04T21:22:12.712Z,98986.09
2024-02-04T21:25:16.848Z,98994.38
2024-02-04T21:28:22.466Z,98987.59
2024-02-04T21:31:26.422Z,98974.34
2024-02-04T21:34:30.529Z,98988.59
2024-02-04T21:37:34.587Z,98985.28
2024-02-04T21:40:39.490Z,98968.47
2024-02-04T21:43:44.770Z,98969.41
2024-02-04T21:46:49.300Z,98963.56
2024-02-04T21:49:55.997Z,98963.78
2024-02-04T21:53:01.091Z,98962.59
2024-02-04T21:56:06.370Z,98970.38
2024-02-04T21:59:11.687Z,98949.34
2024-02-04T22:02:15.550Z,98948.41
2024-02-04T22:05:19.640Z,98933.34
2024-02-04T22:08:23.565Z,98934.13
2024-02-04T22:11:28.067Z,98924.94
2024-02-04T22:14:33.299Z,98928.09
2024-02-04T22:17:38.000Z,98930.69
2024-02-04T22:20:42.167Z,98925.69
2024-02-04T22:23:46.111Z,98936.41
2024-02-04T22:26:49.949Z,98939.06
2024-02-04T22:29:55.427Z,98924.13
2024-02-04T22:32:59.381Z,98903.88
2024-02-04T22:36:03.541Z,98903.91
2024-02-04T22:39:08.002Z,98914.72
2024-02-04T22:42:12.069Z,98916.47
2024-02-04T22:45:17.384Z,98909.84
2024-02-04T22:48:21.360Z,98895.63
2024-02-04T22:51:26.649Z,98897.16
2024-02-04T22:54:30.678Z,98888.72
2024-02-04T22:57:34.792Z,98884.56
2024-02-04T23:00:40.611Z,98882.03
2024-02-04T23:03:45.597Z,98870.66
2024-02-04T23:06:49.719Z,98882.09
2024-02-04T23:09:54.421Z,98880.19
2024-02-04T23:12:58.958Z,98868.38
2024-02-04T23:16:04.542Z,98862.16
2024-02-04T23:19:08.812Z,98867.31
2024-02-04T23:22:12.914Z,98869.72
2024-02-04T23:25:17.190Z,98866.59
2024-02-04T23:28:21.260Z,98875.59
2024-02-04T23:31:26.777Z,98860.31
2024-02-04T23:34:30.961Z,98861.91
2024-02-04T23:37:51.895Z,98868.00
2024-02-04T23:40:55.750Z,98863.69
2024-02-04T23:43:59.748Z,98868.66
2024-02-04T23:47:05.246Z,98860.22
2024-02-04T23:50:11.851Z,98843.38
2024-02-04T23:53:16.295Z,98853.41
2024-02-04T23:56:20.185Z,98846.56
2024-02-04T23:59:24.086Z,98841.81
